Time;durP1;ratioP1;P1;durP2;ratioP2;P2;SDS_P1;SDS_P2;PMS_P1;PMS_P2;Temp;Humidity;BMP_temperature;BMP_pressure;BME280_temperature;BME280_humidity;BME280_pressure;Samples;Min_cycle;Max_cycle;Signal;HPM_P1;HPM_P2
2021/05/19 00:02:26;;;;;;;17.80;10.82;;;;;;;7.14;88.30;97576.43;1606360;86;20923;-77
2021/05/19 00:04:52;;;;;;;18.27;11.35;;;;;;;7.04;88.97;97574.00;1654379;86;21007;-77
2021/05/19 00:07:18;;;;;;;17.15;11.55;;;;;;;6.97;88.63;97570.75;1661261;85;20978;-76
2021/05/19 00:09:44;;;;;;;23.70;15.55;;;;;;;6.94;87.88;97578.02;1667110;86;20945;-77
2021/05/19 00:12:10;;;;;;;18.55;11.12;;;;;;;6.89;88.57;97575.31;1667060;84;21379;-77
2021/05/19 00:14:36;;;;;;;15.40;10.45;;;;;;;6.78;89.71;97578.52;1667028;86;21089;-77
2021/05/19 00:17:02;;;;;;;15.65;11.15;;;;;;;6.75;89.18;97576.88;1667078;84;21584;-76
2021/05/19 00:19:28;;;;;;;17.75;9.63;;;;;;;6.70;89.58;97572.84;1667479;85;20911;-77
2021/05/19 00:21:54;;;;;;;14.90;9.78;;;;;;;6.70;89.41;97570.16;1644132;86;20930;-76
2021/05/19 00:24:20;;;;;;;16.67;9.73;;;;;;;6.73;89.48;97566.38;1643823;86;21125;-76
2021/05/19 00:26:46;;;;;;;17.95;9.95;;;;;;;6.69;88.98;97568.00;1667068;84;21074;-77
2021/05/19 00:29:13;;;;;;;13.25;9.40;;;;;;;6.65;89.04;97560.70;1667079;85;21054;-77
2021/05/19 00:31:41;;;;;;;15.80;10.48;;;;;;;6.61;89.34;97556.94;1666914;84;21002;-77
2021/05/19 00:34:13;;;;;;;14.23;9.65;;;;;;;6.61;88.75;97559.63;1667036;86;21002;-77
2021/05/19 00:36:39;;;;;;;15.88;9.93;;;;;;;6.61;89.16;97559.09;1667130;84;21110;-76
2021/05/19 00:39:07;;;;;;;15.32;9.75;;;;;;;6.57;88.64;97557.98;1667083;86;21530;-77
2021/05/19 00:41:34;;;;;;;16.27;10.65;;;;;;;6.42;90.17;97562.81;1667038;84;21485;-77
2021/05/19 00:44:06;;;;;;;14.78;10.68;;;;;;;6.41;90.04;97558.50;1667053;86;21037;-77
2021/05/19 00:46:33;;;;;;;16.90;11.57;;;;;;;6.40;88.79;97561.43;1666656;84;21544;-76
2021/05/19 00:48:59;;;;;;;16.05;10.43;;;;;;;6.24;90.74;97559.24;1667321;86;21525;-76
2021/05/19 00:51:26;;;;;;;15.08;9.73;;;;;;;6.26;89.84;97564.36;1666863;84;21014;-76
2021/05/19 00:53:52;;;;;;;15.13;8.95;;;;;;;6.23;89.25;97563.78;1666981;85;21077;-76
2021/05/19 00:56:19;;;;;;;14.33;10.38;;;;;;;6.19;90.29;97560.55;1666981;84;21470;-76
2021/05/19 00:58:45;;;;;;;15.43;9.35;;;;;;;6.24;89.89;97571.35;1667041;86;21002;-75
2021/05/19 01:01:11;;;;;;;15.23;9.95;;;;;;;6.27;89.11;97565.97;1667341;84;21101;-75
2021/05/19 01:03:37;;;;;;;20.55;10.40;;;;;;;6.25;89.03;97564.09;1667011;85;21001;-75
2021/05/19 01:06:08;;;;;;;13.50;10.13;;;;;;;6.25;89.21;97568.13;1666900;84;21593;-75
2021/05/19 01:11:17;;;;;;;11.88;8.15;;;;;;;6.25;88.94;97563.55;1667391;84;20245;-77
2021/05/19 01:13:45;;;;;;;40.25;21.60;;;;;;;6.21;89.27;97563.25;1667116;86;21286;-77
2021/05/19 01:16:11;;;;;;;16.57;11.20;;;;;;;6.29;89.16;97567.31;1666825;84;20975;-77
2021/05/19 01:18:39;;;;;;;16.10;11.33;;;;;;;6.25;88.94;97563.55;1666882;86;21010;-77
2021/05/19 01:21:05;;;;;;;17.80;11.50;;;;;;;6.18;89.64;97573.20;1667153;84;21228;-77
2021/05/19 01:23:31;;;;;;;15.43;9.53;;;;;;;6.21;90.46;97572.66;1667121;85;20918;-76
2021/05/19 01:26:00;;;;;;;15.43;8.70;;;;;;;6.22;90.37;97571.59;1667017;84;21046;-76
2021/05/19 01:28:26;;;;;;;12.40;8.83;;;;;;;6.22;89.46;97572.94;1667105;85;21489;-76
2021/05/19 01:30:52;;;;;;;15.65;9.90;;;;;;;6.18;89.51;97571.85;1666889;84;21053;-77
2021/05/19 01:33:18;;;;;;;14.65;9.03;;;;;;;6.19;90.24;97578.04;1667209;85;20882;-77
2021/05/19 01:35:44;;;;;;;15.95;8.95;;;;;;;6.21;90.13;97569.97;1644024;86;21085;-77
2021/05/19 01:38:10;;;;;;;12.90;8.23;;;;;;;6.24;90.28;97578.08;1666875;84;21857;-77
2021/05/19 01:40:36;;;;;;;12.50;8.55;;;;;;;6.24;90.12;97575.39;1666863;85;21528;-77
2021/05/19 01:43:02;;;;;;;13.93;9.08;;;;;;;6.24;89.37;97578.08;1666926;84;20915;-77
2021/05/19 01:45:29;;;;;;;13.60;8.75;;;;;;;6.22;89.17;97574.81;1666988;85;21084;-77
2021/05/19 01:47:55;;;;;;;13.15;9.25;;;;;;;6.21;90.50;97575.89;1667156;84;21002;-77
2021/05/19 01:50:25;;;;;;;15.58;9.40;;;;;;;6.23;90.55;97575.89;1667030;86;21275;-77
2021/05/19 01:52:59;;;;;;;12.20;8.33;;;;;;;6.26;90.81;97577.81;1666602;84;21013;-77
2021/05/19 01:55:26;;;;;;;14.28;8.05;;;;;;;6.33;89.71;97579.73;1667056;86;21015;-76
2021/05/19 01:57:52;;;;;;;12.65;8.03;;;;;;;6.26;89.87;97589.38;1667258;84;21069;-76
2021/05/19 02:00:21;;;;;;;12.75;8.38;;;;;;;6.27;90.27;97580.77;1666994;86;20914;-76
2021/05/19 02:02:58;;;;;;;11.55;7.42;;;;;;;6.26;89.62;97593.95;1666866;84;21757;-76
2021/05/19 02:05:24;;;;;;;14.73;7.58;;;;;;;6.17;90.15;97589.61;1666058;86;20983;-76
2021/05/19 02:07:51;;;;;;;12.23;7.95;;;;;;;6.11;90.43;97586.07;1666829;84;20978;-76
2021/05/19 02:10:18;;;;;;;11.55;8.25;;;;;;;6.13;89.92;97590.65;1667226;85;21442;-76
2021/05/19 02:12:44;;;;;;;11.88;8.30;;;;;;;6.11;90.09;97594.14;1666875;84;21006;-76
2021/05/19 02:15:10;;;;;;;12.68;7.53;;;;;;;6.10;90.02;97593.06;1666843;85;21083;-76
2021/05/19 02:17:36;;;;;;;11.70;8.13;;;;;;;6.08;89.86;97596.02;1667000;84;21022;-76
2021/05/19 02:20:12;;;;;;;13.30;8.00;;;;;;;6.07;89.97;97594.94;1667000;86;21078;-75
2021/05/19 02:22:39;;;;;;;11.78;7.95;;;;;;;6.03;89.95;97588.45;1666140;84;21026;-76
2021/05/19 02:25:07;;;;;;;12.85;7.42;;;;;;;6.01;89.67;97591.41;1666978;86;21055;-76
2021/05/19 02:27:33;;;;;;;9.75;6.55;;;;;;;5.98;89.35;97591.91;1666981;84;21105;-76
2021/05/19 02:29:59;;;;;;;10.50;6.80;;;;;;;5.86;88.87;97586.70;1666868;86;21093;-76
2021/05/19 02:32:26;;;;;;;14.33;7.05;;;;;;;5.79;89.52;97590.15;1667020;84;20938;-76
2021/05/19 02:34:52;;;;;;;9.08;6.12;;;;;;;5.81;89.28;97586.69;1643881;86;21537;-76
2021/05/19 02:37:18;;;;;;;9.78;7.33;;;;;;;5.74;89.95;97586.64;1666954;84;20899;-76
2021/05/19 02:39:44;;;;;;;11.28;7.20;;;;;;;5.61;90.04;97589.22;1666879;85;21095;-75
2021/05/19 02:42:10;;;;;;;7.83;5.55;;;;;;;5.61;89.82;97594.59;1666977;84;20930;-75
2021/05/19 02:44:36;;;;;;;10.78;7.15;;;;;;;5.57;89.14;97592.16;1666989;86;21505;-75
2021/05/19 02:47:03;;;;;;;13.62;7.75;;;;;;;5.43;89.05;97588.28;1666951;84;20898;-76
2021/05/19 02:49:29;;;;;;;13.28;8.03;;;;;;;5.34;88.98;97593.31;1666929;86;21062;-76
2021/05/19 02:51:55;;;;;;;10.35;7.78;;;;;;;5.37;89.39;97597.63;1667054;84;20989;-76
2021/05/19 02:54:22;;;;;;;11.40;8.25;;;;;;;5.32;89.97;97593.58;1666798;86;21609;-76
2021/05/19 02:56:48;;;;;;;15.75;8.90;;;;;;;5.34;89.67;97596.81;1666823;84;20974;-76
2021/05/19 02:59:13;;;;;;;10.60;6.60;;;;;;;5.37;89.41;97594.94;1667065;85;20907;-76
2021/05/19 03:01:40;;;;;;;11.65;7.22;;;;;;;5.40;89.16;97595.52;1666858;84;20953;-76
2021/05/19 03:04:06;;;;;;;11.35;7.58;;;;;;;5.32;88.78;97598.14;1666940;86;21247;-76
2021/05/19 03:06:32;;;;;;;12.58;7.42;;;;;;;5.25;88.71;97594.31;1666788;84;21525;-76
2021/05/19 03:08:58;;;;;;;34.53;15.90;;;;;;;5.17;88.86;97598.00;1656247;85;21066;-76
2021/05/19 03:11:24;;;;;;;22.82;12.05;;;;;;;5.10;88.77;97604.38;1627651;85;20954;-76
2021/05/19 03:13:50;;;;;;;16.97;10.00;;;;;;;5.06;90.31;97602.47;1654248;86;20999;-76
2021/05/19 03:16:16;;;;;;;26.90;16.02;;;;;;;5.14;89.94;97602.55;1627700;86;21722;-76
2021/05/19 03:18:42;;;;;;;14.25;9.55;;;;;;;5.14;90.59;97606.05;1654054;85;20891;-76
2021/05/19 03:21:08;;;;;;;23.65;16.85;;;;;;;5.14;89.95;97606.05;1654690;86;21066;-76
2021/05/19 03:23:34;;;;;;;22.90;16.55;;;;;;;5.17;90.67;97615.45;1654216;85;21054;-76
2021/05/19 03:26:00;;;;;;;22.62;16.00;;;;;;;5.24;90.26;97612.84;1654357;86;20915;-76
2021/05/19 03:28:26;;;;;;;14.60;11.50;;;;;;;5.29;91.23;97610.72;1654100;85;21490;-76
2021/05/19 03:30:53;;;;;;;17.80;12.43;;;;;;;5.34;91.04;97614.81;1627617;86;21529;-76
2021/05/19 03:33:19;;;;;;;16.42;13.68;;;;;;;5.40;90.62;97617.83;1654192;85;20954;-76
2021/05/19 03:35:45;;;;;;;17.32;13.55;;;;;;;5.49;90.04;97630.26;1654791;86;21074;-76
2021/05/19 03:38:12;;;;;;;20.15;10.53;;;;;;;5.56;90.13;97633.55;1627741;86;20998;-76
2021/05/19 03:40:38;;;;;;;16.93;12.20;;;;;;;5.53;90.33;97632.70;1654269;86;21810;-76
2021/05/19 03:43:04;;;;;;;23.40;14.85;;;;;;;5.56;89.95;97632.20;1654169;85;21070;-76
2021/05/19 03:45:30;;;;;;;22.07;16.55;;;;;;;5.61;89.99;97637.61;1654366;86;21098;-76
2021/05/19 03:47:56;;;;;;;15.30;10.23;;;;;;;5.69;89.75;97637.66;1654362;85;21491;-76
2021/05/19 03:50:25;;;;;;;21.48;14.93;;;;;;;5.76;89.38;97646.33;1654258;86;20990;-76
2021/05/19 03:52:52;;;;;;;19.12;14.03;;;;;;;5.78;89.78;97646.87;1627684;86;21699;-77
2021/05/19 03:55:18;;;;;;;13.13;7.78;;;;;;;5.85;89.86;97651.50;1654162;85;21067;-77
2021/05/19 03:57:44;;;;;;;16.93;11.75;;;;;;;5.92;89.29;97654.81;1654691;85;20923;-77
2021/05/19 04:00:15;;;;;;;16.37;9.50;;;;;;;5.94;89.41;97658.86;1654364;86;20915;-77
2021/05/19 04:02:42;;;;;;;14.10;8.35;;;;;;;6.02;89.42;97656.23;1654381;85;21058;-77
2021/05/19 04:05:09;;;;;;;17.65;11.45;;;;;;;6.02;89.34;97662.95;1654329;86;21042;-77
2021/05/19 04:07:35;;;;;;;15.93;9.70;;;;;;;6.02;89.97;97666.17;1654192;85;21074;-77
2021/05/19 04:10:01;;;;;;;9.23;5.85;;;;;;;6.11;90.05;97656.55;1654835;86;20927;-76
2021/05/19 04:12:27;;;;;;;7.65;5.53;;;;;;;6.21;89.22;97645.84;1628003;86;21370;-76
2021/05/19 04:14:53;;;;;;;10.08;6.72;;;;;;;6.23;88.62;97649.88;1654532;86;21513;-76
2021/05/19 04:17:19;;;;;;;12.98;8.10;;;;;;;6.25;89.64;97646.96;1654227;85;21239;-76
2021/05/19 04:19:44;;;;;;;8.30;5.60;;;;;;;6.46;89.58;97649.20;1654326;86;20908;-76
2021/05/19 04:22:10;;;;;;;11.35;7.58;;;;;;;6.46;89.58;97649.20;1654404;85;20911;-76
2021/05/19 04:24:37;;;;;;;10.15;6.83;;;;;;;6.57;89.22;97656.25;1654494;85;20951;-76
2021/05/19 04:27:03;;;;;;;11.55;7.20;;;;;;;6.57;89.13;97656.25;1654384;85;21515;-76
2021/05/19 04:29:29;;;;;;;8.75;5.67;;;;;;;6.60;90.02;97658.44;1654344;86;21126;-77
2021/05/19 04:31:55;;;;;;;14.55;8.55;;;;;;;6.68;88.77;97656.59;1654189;85;20931;-77
2021/05/19 04:34:21;;;;;;;11.63;7.95;;;;;;;6.62;89.13;97656.83;1654326;85;20927;-77
2021/05/19 04:36:47;;;;;;;11.88;7.40;;;;;;;6.76;89.63;97658.78;1654242;85;20903;-77
2021/05/19 04:39:13;;;;;;;12.78;7.22;;;;;;;6.84;89.64;97656.66;1654284;85;20943;-77
2021/05/19 04:41:39;;;;;;;8.43;5.72;;;;;;;6.96;89.51;97659.38;1654248;86;21114;-76
2021/05/19 04:44:05;;;;;;;10.63;6.45;;;;;;;7.16;88.86;97660.50;1654339;85;20892;-77
2021/05/19 04:46:31;;;;;;;9.98;5.22;;;;;;;7.22;88.40;97664.83;1654295;86;21593;-77
2021/05/19 04:48:59;;;;;;;8.73;7.00;;;;;;;7.35;88.12;97663.79;1654394;85;21446;-77
2021/05/19 04:51:28;;;;;;;10.95;6.53;;;;;;;7.50;88.28;97668.91;1654328;85;21034;-77
2021/05/19 04:53:54;;;;;;;11.43;7.37;;;;;;;7.47;87.92;97671.61;1654293;85;21747;-76
2021/05/19 04:56:20;;;;;;;14.58;7.50;;;;;;;7.56;88.17;97672.70;1627713;86;22016;-76
2021/05/19 04:58:46;;;;;;;11.90;7.17;;;;;;;7.69;89.02;97671.38;1654290;85;21493;-76
2021/05/19 05:01:12;;;;;;;10.35;7.37;;;;;;;7.82;88.56;97668.66;1654360;86;21514;-76
2021/05/19 05:03:38;;;;;;;14.30;7.05;;;;;;;7.82;87.66;97661.37;1654280;85;20875;-76
2021/05/19 05:06:04;;;;;;;9.58;6.12;;;;;;;7.93;87.84;97652.19;1654321;86;21291;-76
2021/05/19 05:08:30;;;;;;;9.93;7.40;;;;;;;8.06;87.71;97650.84;1659141;85;21391;-76
2021/05/19 05:10:56;;;;;;;11.88;6.80;;;;;;;8.17;87.46;97652.98;1666943;85;20918;-76
2021/05/19 05:13:23;;;;;;;10.90;6.92;;;;;;;8.18;86.67;97651.34;1666863;84;21093;-76
2021/05/19 05:15:50;;;;;;;14.18;7.95;;;;;;;8.34;86.48;97651.32;1667147;85;21007;-76
2021/05/19 05:18:16;;;;;;;17.90;9.50;;;;;;;8.35;86.70;97656.47;1666934;84;21897;-76
2021/05/19 05:20:42;;;;;;;15.90;11.73;;;;;;;8.51;86.83;97657.24;1666881;85;20993;-76
2021/05/19 05:23:08;;;;;;;28.90;13.93;;;;;;;8.74;86.98;97651.23;1666918;84;20974;-76
2021/05/19 05:25:34;;;;;;;17.73;12.53;;;;;;;8.90;86.52;97656.57;1667141;86;20997;-76
2021/05/19 05:28:00;;;;;;;17.80;11.38;;;;;;;9.00;86.42;97657.87;1667126;84;20874;-76
2021/05/19 05:30:26;;;;;;;19.95;13.40;;;;;;;9.15;86.51;97662.39;1666982;85;21061;-76
2021/05/19 05:32:52;;;;;;;20.20;12.45;;;;;;;9.35;85.61;97665.52;1667286;84;21488;-76
2021/05/19 05:35:18;;;;;;;24.77;15.32;;;;;;;9.36;85.39;97663.88;1666982;85;20923;-76
2021/05/19 05:37:44;;;;;;;23.55;13.48;;;;;;;9.42;85.51;97670.06;1667000;84;21077;-76
2021/05/19 05:40:10;;;;;;;16.52;10.58;;;;;;;9.42;85.51;97670.06;1643872;86;21595;-75
2021/05/19 05:42:36;;;;;;;19.50;11.25;;;;;;;9.49;85.42;97675.43;1643706;86;21936;-75
2021/05/19 05:45:05;;;;;;;18.60;11.90;;;;;;;9.46;84.92;97673.27;1667084;86;21073;-76
2021/05/19 05:47:33;;;;;;;20.60;11.63;;;;;;;9.43;85.44;97675.19;1666969;84;21243;-76
2021/05/19 05:50:02;;;;;;;17.90;12.13;;;;;;;9.50;86.22;97681.10;1666853;85;21046;-76
2021/05/19 05:52:27;;;;;;;19.52;12.68;;;;;;;9.76;86.26;97677.67;1666908;84;20966;-76
2021/05/19 05:54:53;;;;;;;17.52;12.88;;;;;;;10.05;85.97;97677.69;1666960;86;21042;-76
2021/05/19 05:57:19;;;;;;;19.52;12.03;;;;;;;10.28;85.77;97683.48;1666878;84;20875;-76
2021/05/19 05:59:44;;;;;;;14.35;10.55;;;;;;;10.40;85.04;97682.53;1667062;86;21002;-77
2021/05/19 06:02:10;;;;;;;13.53;9.85;;;;;;;10.50;84.52;97681.62;1643789;86;21813;-76
2021/05/19 06:04:36;;;;;;;15.63;11.08;;;;;;;10.70;84.35;97680.87;1667038;84;21061;-76
2021/05/19 06:07:02;;;;;;;10.70;8.78;;;;;;;10.83;83.79;97681.25;1643811;86;21127;-76
2021/05/19 06:09:28;;;;;;;12.95;8.40;;;;;;;10.78;83.31;97677.27;1666843;84;21444;-76
2021/05/19 06:11:54;;;;;;;10.75;7.80;;;;;;;11.01;83.89;97679.13;1643932;86;21568;-76
2021/05/19 06:14:21;;;;;;;14.25;9.78;;;;;;;11.39;84.22;97678.63;1666878;84;20867;-77
2021/05/19 06:16:47;;;;;;;29.92;12.73;;;;;;;11.78;83.16;97672.08;1666973;85;21014;-77
2021/05/19 06:19:13;;;;;;;8.50;6.37;;;;;;;12.12;82.84;97675.89;1666996;84;21077;-77
2021/05/19 06:21:39;;;;;;;8.30;5.70;;;;;;;12.34;81.84;97666.55;1667277;86;20907;-77
2021/05/19 06:24:07;;;;;;;5.67;4.62;;;;;;;12.58;79.65;97669.09;1644067;86;21035;-76
2021/05/19 06:26:33;;;;;;;7.30;5.58;;;;;;;12.76;78.03;97660.59;1666874;86;21536;-77
2021/05/19 06:28:59;;;;;;;8.23;5.53;;;;;;;12.98;77.63;97653.87;1666978;84;20898;-77
2021/05/19 06:31:25;;;;;;;11.08;5.45;;;;;;;13.08;72.75;97656.95;1666898;85;21097;-77
2021/05/19 06:33:51;;;;;;;6.67;5.12;;;;;;;13.46;75.42;97663.50;1666973;84;20867;-77
2021/05/19 06:36:17;;;;;;;9.20;4.92;;;;;;;13.66;74.99;97663.02;1666878;85;21525;-77
2021/05/19 06:38:43;;;;;;;8.68;5.42;;;;;;;13.79;73.36;97672.27;1666950;84;20927;-77
2021/05/19 06:41:09;;;;;;;9.78;5.15;;;;;;;13.89;72.40;97673.38;1666921;86;21077;-78
2021/05/19 06:43:35;;;;;;;8.45;5.22;;;;;;;13.95;69.01;97673.51;1667040;84;21131;-76
2021/05/19 06:46:01;;;;;;;5.10;4.15;;;;;;;13.95;68.19;97673.51;1667290;86;20930;-77
2021/05/19 06:48:27;;;;;;;7.80;4.58;;;;;;;13.97;69.55;97674.55;1667046;84;20906;-77
2021/05/19 06:50:53;;;;;;;6.42;3.87;;;;;;;13.95;67.86;97679.52;1667026;85;20906;-77
2021/05/19 06:53:19;;;;;;;6.97;4.78;;;;;;;14.18;68.88;97674.84;1666971;84;20966;-77
2021/05/19 06:55:49;;;;;;;5.67;4.58;;;;;;;14.30;67.79;97674.53;1666893;86;21301;-77
2021/05/19 06:58:12;;;;;;;8.93;4.60;;;;;;;14.28;64.70;97675.41;1666360;84;21121;-77
2021/05/19 07:00:38;;;;;;;8.85;5.20;;;;;;;14.59;66.03;97672.70;1667054;85;20914;-76
2021/05/19 07:03:05;;;;;;;7.70;3.95;;;;;;;14.74;63.34;97676.94;1643994;86;21483;-76
2021/05/19 07:05:31;;;;;;;7.33;4.62;;;;;;;14.95;66.80;97679.89;1667010;85;21505;-76
2021/05/19 07:07:56;;;;;;;8.15;5.15;;;;;;;15.03;64.39;97664.67;1666863;84;21136;-76
2021/05/19 07:10:23;;;;;;;11.68;5.03;;;;;;;15.27;63.49;97669.70;1667116;85;20923;-76
2021/05/19 07:12:50;;;;;;;6.33;4.65;;;;;;;15.48;63.69;97670.72;1667154;84;20950;-76
2021/05/19 07:15:17;;;;;;;6.75;4.25;;;;;;;15.52;63.09;97668.37;1666997;86;21018;-76
2021/05/19 07:17:43;;;;;;;5.12;4.08;;;;;;;15.69;62.21;97663.52;1667424;84;21066;-77
2021/05/19 07:20:11;;;;;;;5.72;4.40;;;;;;;15.99;60.22;97671.31;1667105;85;21509;-77
2021/05/19 07:22:39;;;;;;;6.22;4.30;;;;;;;16.40;59.74;97673.23;1667037;86;20951;-77
2021/05/19 07:25:06;;;;;;;7.37;4.43;;;;;;;16.94;58.30;97668.89;1667023;86;21458;-77
2021/05/19 07:27:32;;;;;;;6.62;5.22;;;;;;;16.52;54.52;97668.70;1667159;86;21553;-77
2021/05/19 07:29:58;;;;;;;6.72;5.30;;;;;;;16.64;56.77;97667.44;1644070;86;21470;-76
2021/05/19 07:32:24;;;;;;;9.45;5.30;;;;;;;15.90;56.80;97664.25;1667012;86;21440;-76
2021/05/19 07:34:51;;;;;;;6.40;5.22;;;;;;;15.75;58.04;97663.61;1666965;84;20999;-76
2021/05/19 07:37:16;;;;;;;7.35;5.25;;;;;;;15.26;57.55;97655.26;1667005;86;21029;-77
2021/05/19 07:39:43;;;;;;;7.20;5.12;;;;;;;15.09;58.82;97653.30;1667102;84;20894;-77
2021/05/19 07:42:16;;;;;;;5.97;4.83;;;;;;;15.37;57.96;97655.19;1667005;85;21469;-75
2021/05/19 07:44:36;;;;;;;10.00;8.15;;;;;;;16.63;55.81;97652.73;1666073;84;21051;-73
2021/05/19 07:47:02;;;;;;;8.08;5.15;;;;;;;16.91;53.57;97658.02;1666945;86;20926;-73
2021/05/19 07:49:28;;;;;;;7.50;5.50;;;;;;;17.82;56.64;97663.91;1667115;84;20867;-73
2021/05/19 07:51:54;;;;;;;8.80;5.20;;;;;;;18.27;52.98;97657.67;1667076;86;20891;-73
2021/05/19 07:54:27;;;;;;;6.87;5.10;;;;;;;18.30;49.79;97650.16;1667132;84;20961;-73
2021/05/19 07:59:36;;;;;;;6.72;4.53;;;;;;;18.97;48.51;97661.27;1667104;84;21026;-76
2021/05/19 08:02:03;;;;;;;7.70;4.25;;;;;;;19.26;48.49;97649.22;1667039;86;20934;-77
2021/05/19 08:04:36;;;;;;;6.12;4.50;;;;;;;19.22;49.80;97657.11;1667073;84;20987;-76
2021/05/19 08:07:04;;;;;;;5.53;4.12;;;;;;;18.58;47.62;97654.44;1666996;85;21071;-76
2021/05/19 08:09:30;;;;;;;5.12;4.05;;;;;;;18.88;49.26;97664.66;1637388;86;22496;-76
2021/05/19 08:11:56;;;;;;;6.72;4.55;;;;;;;17.90;50.09;97660.86;1654385;86;20927;-76
2021/05/19 08:14:26;;;;;;;7.00;4.85;;;;;;;17.84;49.36;97668.47;1654208;85;21042;-76
2021/05/19 08:16:51;;;;;;;6.45;4.78;;;;;;;17.58;50.51;97659.06;1654240;86;21427;-77
2021/05/19 08:19:16;;;;;;;5.80;4.90;;;;;;;18.03;50.81;97659.22;1654266;85;20939;-76
2021/05/19 08:21:42;;;;;;;6.42;5.10;;;;;;;18.24;48.21;97655.05;1654749;86;21192;-77
2021/05/19 08:24:09;;;;;;;7.70;4.45;;;;;;;18.58;47.15;97652.50;1654664;85;20899;-77
2021/05/19 08:26:35;;;;;;;6.75;4.53;;;;;;;19.92;48.61;97648.87;1654456;85;21062;-76
2021/05/19 08:29:01;;;;;;;7.22;4.20;;;;;;;20.67;46.92;97648.13;1654365;85;21419;-76
2021/05/19 08:31:27;;;;;;;7.12;3.98;;;;;;;19.24;43.84;97652.09;1654340;86;21549;-76
2021/05/19 08:33:53;;;;;;;5.92;4.12;;;;;;;20.11;45.62;97644.09;1654341;85;21124;-76
2021/05/19 08:36:19;;;;;;;5.33;3.72;;;;;;;20.39;43.08;97652.87;1627686;86;21110;-76
2021/05/19 08:38:45;;;;;;;6.15;3.08;;;;;;;19.24;44.93;97647.98;1654365;85;20970;-76
2021/05/19 08:41:11;;;;;;;4.03;2.37;;;;;;;20.21;44.87;97648.28;1654320;86;21556;-76
2021/05/19 08:43:37;;;;;;;4.65;3.45;;;;;;;19.97;40.81;97650.55;1654378;85;20982;-77
2021/05/19 08:46:08;;;;;;;7.17;3.67;;;;;;;19.92;42.33;97646.70;1654736;86;21262;-77
2021/05/19 08:48:34;;;;;;;5.95;3.20;;;;;;;20.65;42.36;97642.19;1654232;85;20978;-76
2021/05/19 08:51:00;;;;;;;7.40;4.30;;;;;;;21.16;42.22;97639.50;1654305;86;21054;-76
2021/05/19 08:53:27;;;;;;;4.92;4.28;;;;;;;21.50;39.40;97633.80;1654188;85;21097;-76
2021/05/19 08:55:53;;;;;;;5.65;4.12;;;;;;;21.49;39.90;97642.44;1654374;86;21061;-76
2021/05/19 08:58:19;;;;;;;4.97;4.53;;;;;;;21.09;41.13;97640.70;1654229;85;21454;-77
2021/05/19 09:00:45;;;;;;;4.25;3.85;;;;;;;20.77;40.51;97639.95;1654274;86;21090;-77
2021/05/19 09:03:14;;;;;;;4.80;3.58;;;;;;;21.77;37.96;97633.97;1654419;85;20927;-77
2021/05/19 09:05:42;;;;;;;7.05;5.85;;;;;;;20.05;41.08;97632.30;1654808;86;21055;-76
2021/05/19 09:08:11;;;;;;;5.10;4.50;;;;;;;19.39;42.93;97628.81;1654260;86;20987;-76
2021/05/19 09:10:40;;;;;;;7.35;4.72;;;;;;;19.81;43.59;97630.45;1663931;85;20966;-76
2021/05/19 09:13:06;;;;;;;9.23;5.03;;;;;;;20.26;43.51;97629.58;1667075;85;21038;-76
2021/05/19 09:15:46;;;;;;;9.45;5.97;;;;;;;19.56;45.16;97635.19;1666995;84;21000;-76
2021/05/19 09:18:12;;;;;;;8.80;5.90;;;;;;;18.23;46.67;97647.16;1666963;86;21533;-76
2021/05/19 09:20:49;;;;;;;6.83;5.53;;;;;;;17.85;46.88;97644.61;1667025;84;20902;-76
2021/05/19 09:23:22;;;;;;;10.30;6.78;;;;;;;17.90;47.49;97634.25;1666885;86;21120;-76
2021/05/19 09:26:09;;;;;;;6.67;5.97;;;;;;;18.31;47.94;97633.36;1644053;86;21026;-76
2021/05/19 09:28:35;;;;;;;6.65;5.92;;;;;;;17.47;47.45;97631.84;1666888;84;21002;-76
2021/05/19 09:31:01;;;;;;;9.18;6.50;;;;;;;17.18;49.26;97632.13;1667466;86;20918;-76
2021/05/19 09:33:28;;;;;;;10.08;7.53;;;;;;;17.02;50.53;97635.77;1666996;84;20978;-76
2021/05/19 09:36:18;;;;;;;8.88;7.92;;;;;;;16.29;52.45;97632.57;1666911;86;21253;-76
2021/05/19 09:38:47;;;;;;;8.00;7.20;;;;;;;16.33;52.41;97634.11;1666875;84;21240;-76
2021/05/19 09:41:26;;;;;;;10.95;7.37;;;;;;;16.88;51.63;97630.52;1667296;86;21518;-76
2021/05/19 09:43:55;;;;;;;9.73;8.60;;;;;;;17.03;50.64;97638.17;1667406;84;21010;-77
2021/05/19 09:48:48;;;;;;;9.65;8.30;;;;;;;16.98;53.48;97626.03;1666839;84;21164;-77
2021/05/19 09:51:27;;;;;;;9.58;8.68;;;;;;;16.61;53.10;97628.45;1667011;86;21056;-77
2021/05/19 09:53:53;;;;;;;12.45;9.30;;;;;;;16.82;53.03;97625.80;1664445;84;21015;-76
2021/05/19 09:56:20;;;;;;;9.28;7.97;;;;;;;16.76;53.60;97628.50;1666890;86;20942;-76
2021/05/19 09:58:47;;;;;;;12.73;8.85;;;;;;;16.85;53.02;97622.98;1666917;84;21029;-76
2021/05/19 10:01:13;;;;;;;9.28;7.90;;;;;;;17.52;50.68;97619.87;1666974;86;21109;-76
2021/05/19 10:03:39;;;;;;;10.75;7.22;;;;;;;19.48;45.99;97608.65;1666949;84;20954;-76
2021/05/19 10:06:16;;;;;;;8.65;6.58;;;;;;;22.36;40.66;97606.00;1667004;86;20954;-76
2021/05/19 10:08:36;;;;;;;7.90;6.58;;;;;;;22.98;37.84;97599.75;1666003;84;21038;-76
2021/05/19 10:11:04;;;;;;;6.83;6.08;;;;;;;25.03;36.33;97593.46;1667138;85;20969;-76
2021/05/19 10:13:30;;;;;;;9.20;6.53;;;;;;;26.07;34.67;97590.08;1667017;86;21070;-77
2021/05/19 10:16:02;;;;;;;7.85;6.30;;;;;;;22.91;35.77;97596.11;1622344;86;21045;-77
2021/05/19 10:18:34;;;;;;;6.20;5.60;;;;;;;20.71;38.95;97609.13;1667009;86;20962;-77
2021/05/19 10:20:59;;;;;;;7.90;6.40;;;;;;;20.07;41.84;97602.50;1666951;84;21050;-77
2021/05/19 10:23:41;;;;;;;6.08;5.00;;;;;;;20.67;41.27;97604.67;1666907;86;20930;-77
2021/05/19 10:26:12;;;;;;;5.20;4.28;;;;;;;23.37;38.21;97594.02;1644013;86;21063;-77
2021/05/19 10:28:42;;;;;;;5.15;4.60;;;;;;;24.43;34.92;97596.49;1667096;85;21369;-77
2021/05/19 10:31:43;;;;;;;4.87;4.30;;;;;;;25.41;35.20;97601.05;1666870;86;21016;-77
2021/05/19 10:34:09;;;;;;;4.47;3.92;;;;;;;26.21;30.70;97597.63;1667016;84;21010;-78
2021/05/19 10:36:41;;;;;;;5.45;4.20;;;;;;;26.27;32.21;97591.11;1667052;86;20954;-77
2021/05/19 10:39:16;;;;;;;4.62;4.17;;;;;;;25.34;33.06;97589.32;1666577;84;21158;-78
2021/05/19 10:41:44;;;;;;;3.85;3.00;;;;;;;27.26;28.03;97599.54;1667259;85;21030;-78
2021/05/19 10:44:12;;;;;;;3.62;2.98;;;;;;;26.04;30.10;97594.22;1644090;86;20986;-78
2021/05/19 10:47:11;;;;;;;7.10;3.60;;;;;;;27.94;29.54;97585.41;1667156;86;21460;-78
2021/05/19 10:50:05;;;;;;;5.55;3.05;;;;;;;28.60;26.33;97577.69;1666800;84;21060;-79
2021/05/19 10:52:57;;;;;;;3.37;2.72;;;;;;;26.60;27.94;97590.00;1666215;86;21221;-77
2021/05/19 10:57:57;;;;;;;3.83;3.12;;;;;;;21.18;35.65;97593.09;1666984;86;21078;-77
2021/05/19 11:00:26;;;;;;;4.95;2.92;;;;;;;20.72;37.08;97593.41;1666822;84;21498;-77
2021/05/19 11:03:08;;;;;;;3.52;2.52;;;;;;;21.74;34.62;97589.21;1666907;86;21130;-78
2021/05/19 11:05:40;;;;;;;2.77;2.22;;;;;;;21.46;33.44;97590.80;1666919;84;21246;-76
2021/05/19 11:08:12;;;;;;;4.47;2.37;;;;;;;22.10;33.49;97592.91;1663334;86;21014;-78
2021/05/19 11:10:50;;;;;;;4.03;2.72;;;;;;;21.24;35.06;97588.12;1666914;84;21002;-78
2021/05/19 11:13:16;;;;;;;3.55;2.77;;;;;;;22.00;33.77;97593.47;1666834;86;21038;-77
2021/05/19 11:20:56;;;;;;;9.18;4.30;;;;;;;20.26;38.45;97594.39;1667152;84;21061;-77
2021/05/19 11:23:22;;;;;;;6.47;5.78;;;;;;;19.47;41.47;97602.36;1666818;84;21537;-77
2021/05/19 11:25:48;;;;;;;8.00;5.78;;;;;;;17.77;46.31;97605.18;1666981;84;21454;-77
2021/05/19 11:28:16;;;;;;;6.90;4.30;;;;;;;17.70;48.25;97607.69;1667023;86;20949;-77
2021/05/19 11:30:42;;;;;;;6.00;5.33;;;;;;;17.57;48.90;97605.98;1666053;84;21142;-77
2021/05/19 11:33:16;;;;;;;7.03;6.33;;;;;;;16.54;52.32;97602.16;1666783;86;20875;-77
2021/05/19 11:35:41;;;;;;;5.85;5.25;;;;;;;16.58;52.51;97602.33;1666571;84;20982;-77
2021/05/19 11:38:08;;;;;;;7.28;5.92;;;;;;;16.93;52.43;97603.55;1667280;86;20978;-77
2021/05/19 11:40:49;;;;;;;5.83;4.83;;;;;;;18.27;48.66;97602.25;1666921;84;21027;-77
2021/05/19 11:43:16;;;;;;;6.00;5.40;;;;;;;19.78;45.25;97594.05;1666959;86;21143;-76
2021/05/19 11:45:48;;;;;;;9.15;5.20;;;;;;;20.67;42.72;97603.30;1666923;84;21081;-77
2021/05/19 11:48:32;;;;;;;5.15;4.65;;;;;;;21.49;40.70;97599.72;1644072;86;21026;-77
2021/05/19 11:50:56;;;;;;;7.60;5.05;;;;;;;22.13;39.97;97611.50;1666029;84;21034;-77